sensor_id;sensor_type;location;lat;lon;timestamp;temperature;humidity
29547;DHT22;40782;47.264;11.330;2022-12-29T00:00:06;0.30;99.90
29547;DHT22;40782;47.264;11.330;2022-12-29T00:02:33;0.30;1.00
29547;DHT22;40782;47.264;11.330;2022-12-29T00:05:01;0.40;1.00
29547;DHT22;40782;47.264;11.330;2022-12-29T00:07:29;0.30;99.90
29547;DHT22;40782;47.264;11.330;2022-12-29T00:09:56;0.20;99.90
29547;DHT22;40782;47.264;11.330;2022-12-29T00:12:23;0.30;99.90
29547;DHT22;40782;47.264;11.330;2022-12-29T00:15:10;0.30;99.90
29547;DHT22;40782;47.264;11.330;2022-12-29T00:17:55;0.30;99.90
29547;DHT22;40782;47.264;11.330;2022-12-29T00:20:22;0.30;99.90
29547;DHT22;40782;47.264;11.330;2022-12-29T00:23:10;0.40;99.90
29547;DHT22;40782;47.264;11.330;2022-12-29T00:25:54;0.30;99.90
29547;DHT22;40782;47.264;11.330;2022-12-29T00:28:39;0.20;99.90
29547;DHT22;40782;47.264;11.330;2022-12-29T00:31:23;0.20;99.90
29547;DHT22;40782;47.264;11.330;2022-12-29T00:34:11;0.20;99.90
29547;DHT22;40782;47.264;11.330;2022-12-29T00:36:56;0.20;99.90
29547;DHT22;40782;47.264;11.330;2022-12-29T00:39:25;0.20;99.90
29547;DHT22;40782;47.264;11.330;2022-12-29T00:42:09;0.10;99.90
29547;DHT22;40782;47.264;11.330;2022-12-29T00:44:54;0.00;99.90
29547;DHT22;40782;47.264;11.330;2022-12-29T00:47:21;0.00;99.90
29547;DHT22;40782;47.264;11.330;2022-12-29T00:49:48;0.00;99.90
29547;DHT22;40782;47.264;11.330;2022-12-29T00:52:14;0.10;99.90
29547;DHT22;40782;47.264;11.330;2022-12-29T00:54:42;0.20;99.90
29547;DHT22;40782;47.264;11.330;2022-12-29T00:57:11;0.30;99.90
29547;DHT22;40782;47.264;11.330;2022-12-29T00:59:40;0.30;99.90
29547;DHT22;40782;47.264;11.330;2022-12-29T01:02:07;0.20;99.90
29547;DHT22;40782;47.264;11.330;2022-12-29T01:04:35;0.10;99.90
29547;DHT22;40782;47.264;11.330;2022-12-29T01:07:02;0.10;99.90
29547;DHT22;40782;47.264;11.330;2022-12-29T01:09:30;0.10;99.90
29547;DHT22;40782;47.264;11.330;2022-12-29T01:12:16;0.10;99.90
29547;DHT22;40782;47.264;11.330;2022-12-29T01:15:04;0.10;99.90
29547;DHT22;40782;47.264;11.330;2022-12-29T01:17:32;0.10;99.90
29547;DHT22;40782;47.264;11.330;2022-12-29T01:19:59;0.00;99.90
29547;DHT22;40782;47.264;11.330;2022-12-29T01:22:26;0.00;99.90
29547;DHT22;40782;47.264;11.330;2022-12-29T01:24:54;-0.10;99.90
29547;DHT22;40782;47.264;11.330;2022-12-29T01:27:22;-0.10;99.90
29547;DHT22;40782;47.264;11.330;2022-12-29T01:29:49;0.00;99.90
29547;DHT22;40782;47.264;11.330;2022-12-29T01:32:17;0.00;99.90
29547;DHT22;40782;47.264;11.330;2022-12-29T01:34:44;0.00;99.90
29547;DHT22;40782;47.264;11.330;2022-12-29T01:37:11;0.00;99.90
29547;DHT22;40782;47.264;11.330;2022-12-29T01:39:38;0.00;99.90
29547;DHT22;40782;47.264;11.330;2022-12-29T01:42:08;-0.10;99.90
29547;DHT22;40782;47.264;11.330;2022-12-29T01:44:53;0.00;99.90
29547;DHT22;40782;47.264;11.330;2022-12-29T01:47:29;0.20;99.90
29547;DHT22;40782;47.264;11.330;2022-12-29T01:50:00;0.10;99.90
29547;DHT22;40782;47.264;11.330;2022-12-29T01:52:31;0.10;99.90
29547;DHT22;40782;47.264;11.330;2022-12-29T01:54:59;0.00;99.90
29547;DHT22;40782;47.264;11.330;2022-12-29T01:57:33;0.00;99.90
29547;DHT22;40782;47.264;11.330;2022-12-29T02:00:05;0.00;99.90
29547;DHT22;40782;47.264;11.330;2022-12-29T02:02:34;0.00;99.90
29547;DHT22;40782;47.264;11.330;2022-12-29T02:05:07;0.00;99.90
29547;DHT22;40782;47.264;11.330;2022-12-29T02:07:37;0.00;99.90
29547;DHT22;40782;47.264;11.330;2022-12-29T02:10:06;0.00;99.90
29547;DHT22;40782;47.264;11.330;2022-12-29T02:12:33;-0.10;99.90
29547;DHT22;40782;47.264;11.330;2022-12-29T02:15:04;0.00;99.90
29547;DHT22;40782;47.264;11.330;2022-12-29T02:17:50;0.00;99.90
29547;DHT22;40782;47.264;11.330;2022-12-29T02:20:41;0.10;99.90
29547;DHT22;40782;47.264;11.330;2022-12-29T02:23:29;0.10;99.90
29547;DHT22;40782;47.264;11.330;2022-12-29T02:26:21;0.00;99.90
29547;DHT22;40782;47.264;11.330;2022-12-29T02:31:55;0.00;99.90
29547;DHT22;40782;47.264;11.330;2022-12-29T02:34:35;0.00;99.90
29547;DHT22;40782;47.264;11.330;2022-12-29T02:37:12;0.10;99.90
29547;DHT22;40782;47.264;11.330;2022-12-29T02:39:44;0.10;99.90
29547;DHT22;40782;47.264;11.330;2022-12-29T02:42:24;0.00;99.90
29547;DHT22;40782;47.264;11.330;2022-12-29T02:44:58;0.00;99.90
29547;DHT22;40782;47.264;11.330;2022-12-29T02:47:34;-0.10;99.90
29547;DHT22;40782;47.264;11.330;2022-12-29T02:50:06;-0.20;99.90
29547;DHT22;40782;47.264;11.330;2022-12-29T02:52:37;-0.20;99.90
29547;DHT22;40782;47.264;11.330;2022-12-29T02:55:06;-0.10;99.90
29547;DHT22;40782;47.264;11.330;2022-12-29T02:57:34;0.00;99.90
29547;DHT22;40782;47.264;11.330;2022-12-29T03:00:05;-0.10;99.90
29547;DHT22;40782;47.264;11.330;2022-12-29T03:02:57;0.00;99.90
29547;DHT22;40782;47.264;11.330;2022-12-29T03:08:26;-0.10;99.90
29547;DHT22;40782;47.264;11.330;2022-12-29T03:10:59;-0.10;99.90
29547;DHT22;40782;47.264;11.330;2022-12-29T03:13:33;-0.10;99.90
29547;DHT22;40782;47.264;11.330;2022-12-29T03:16:22;-0.10;99.90
29547;DHT22;40782;47.264;11.330;2022-12-29T03:19:00;-0.10;99.90
29547;DHT22;40782;47.264;11.330;2022-12-29T03:21:32;-0.10;99.90
29547;DHT22;40782;47.264;11.330;2022-12-29T03:24:19;0.00;99.90
29547;DHT22;40782;47.264;11.330;2022-12-29T03:26:48;0.00;99.90
29547;DHT22;40782;47.264;11.330;2022-12-29T03:29:17;0.00;99.90
29547;DHT22;40782;47.264;11.330;2022-12-29T03:31:46;0.00;99.90
29547;DHT22;40782;47.264;11.330;2022-12-29T03:34:17;0.00;99.90
29547;DHT22;40782;47.264;11.330;2022-12-29T03:36:49;-0.10;99.90
29547;DHT22;40782;47.264;11.330;2022-12-29T03:39:18;-0.20;99.90
29547;DHT22;40782;47.264;11.330;2022-12-29T03:41:50;-0.20;99.90
29547;DHT22;40782;47.264;11.330;2022-12-29T03:44:17;-0.20;99.90
29547;DHT22;40782;47.264;11.330;2022-12-29T03:46:44;-0.20;99.90
29547;DHT22;40782;47.264;11.330;2022-12-29T03:49:11;-0.20;99.90
29547;DHT22;40782;47.264;11.330;2022-12-29T03:51:40;-0.20;99.90
29547;DHT22;40782;47.264;11.330;2022-12-29T03:54:07;-0.30;99.90
29547;DHT22;40782;47.264;11.330;2022-12-29T03:56:34;-0.30;99.90
29547;DHT22;40782;47.264;11.330;2022-12-29T03:59:02;-0.30;99.90
29547;DHT22;40782;47.264;11.330;2022-12-29T04:01:29;-0.30;99.90
29547;DHT22;40782;47.264;11.330;2022-12-29T04:03:56;-0.30;99.90
29547;DHT22;40782;47.264;11.330;2022-12-29T04:06:23;-0.30;99.90
29547;DHT22;40782;47.264;11.330;2022-12-29T04:08:52;-0.30;99.90
29547;DHT22;40782;47.264;11.330;2022-12-29T04:11:20;-0.20;99.90
29547;DHT22;40782;47.264;11.330;2022-12-29T04:13:47;-0.30;99.90
29547;DHT22;40782;47.264;11.330;2022-12-29T04:16:15;-0.30;99.90
29547;DHT22;40782;47.264;11.330;2022-12-29T04:18:42;-0.20;99.90
29547;DHT22;40782;47.264;11.330;2022-12-29T04:21:09;-0.30;99.90
29547;DHT22;40782;47.264;11.330;2022-12-29T04:23:37;-0.40;99.90
29547;DHT22;40782;47.264;11.330;2022-12-29T04:26:07;-0.40;99.90
29547;DHT22;40782;47.264;11.330;2022-12-29T04:28:35;-0.30;99.90
29547;DHT22;40782;47.264;11.330;2022-12-29T04:31:02;-0.40;99.90
29547;DHT22;40782;47.264;11.330;2022-12-29T04:33:29;-0.40;99.90
29547;DHT22;40782;47.264;11.330;2022-12-29T04:35:57;-0.50;99.90
29547;DHT22;40782;47.264;11.330;2022-12-29T04:38:24;-0.40;99.90
29547;DHT22;40782;47.264;11.330;2022-12-29T04:40:51;-0.30;99.90
29547;DHT22;40782;47.264;11.330;2022-12-29T04:43:20;-0.30;99.90
29547;DHT22;40782;47.264;11.330;2022-12-29T04:45:48;-0.30;89.70
29547;DHT22;40782;47.264;11.330;2022-12-29T04:48:15;-0.40;85.20
29547;DHT22;40782;47.264;11.330;2022-12-29T04:50:43;-0.50;99.00
29547;DHT22;40782;47.264;11.330;2022-12-29T04:53:10;-0.50;99.90
29547;DHT22;40782;47.264;11.330;2022-12-29T04:55:37;-0.60;99.90
29547;DHT22;40782;47.264;11.330;2022-12-29T04:58:05;-0.50;99.90
29547;DHT22;40782;47.264;11.330;2022-12-29T05:00:34;-0.50;99.90
29547;DHT22;40782;47.264;11.330;2022-12-29T05:03:01;-0.50;99.90
29547;DHT22;40782;47.264;11.330;2022-12-29T05:05:28;-0.50;99.90
29547;DHT22;40782;47.264;11.330;2022-12-29T05:07:55;-0.40;99.90
29547;DHT22;40782;47.264;11.330;2022-12-29T05:10:23;-0.30;99.90
29547;DHT22;40782;47.264;11.330;2022-12-29T05:12:50;-0.40;99.90
29547;DHT22;40782;47.264;11.330;2022-12-29T05:15:17;-0.30;99.90
29547;DHT22;40782;47.264;11.330;2022-12-29T05:18:17;-0.40;99.90
29547;DHT22;40782;47.264;11.330;2022-12-29T05:20:45;-0.40;99.90
29547;DHT22;40782;47.264;11.330;2022-12-29T05:23:12;-0.40;99.90
29547;DHT22;40782;47.264;11.330;2022-12-29T05:25:39;-0.30;99.90
29547;DHT22;40782;47.264;11.330;2022-12-29T05:28:06;-0.20;99.90
29547;DHT22;40782;47.264;11.330;2022-12-29T05:30:34;-0.30;99.90
29547;DHT22;40782;47.264;11.330;2022-12-29T05:33:01;-0.20;99.90
29547;DHT22;40782;47.264;11.330;2022-12-29T05:35:29;-0.20;72.50
29547;DHT22;40782;47.264;11.330;2022-12-29T05:37:56;-0.20;72.80
29547;DHT22;40782;47.264;11.330;2022-12-29T05:40:24;-0.30;77.80
29547;DHT22;40782;47.264;11.330;2022-12-29T05:42:51;-0.30;95.60
29547;DHT22;40782;47.264;11.330;2022-12-29T05:45:18;-0.30;99.90
29547;DHT22;40782;47.264;11.330;2022-12-29T05:47:45;-0.20;99.60
29547;DHT22;40782;47.264;11.330;2022-12-29T05:50:12;-0.30;98.30
29547;DHT22;40782;47.264;11.330;2022-12-29T05:52:44;-0.30;99.90
29547;DHT22;40782;47.264;11.330;2022-12-29T05:55:11;-0.30;99.90
29547;DHT22;40782;47.264;11.330;2022-12-29T05:57:39;-0.30;96.90
29547;DHT22;40782;47.264;11.330;2022-12-29T06:00:07;-0.30;97.00
29547;DHT22;40782;47.264;11.330;2022-12-29T06:02:34;-0.40;99.90
29547;DHT22;40782;47.264;11.330;2022-12-29T06:05:02;-0.40;99.90
29547;DHT22;40782;47.264;11.330;2022-12-29T06:07:29;-0.30;99.90
29547;DHT22;40782;47.264;11.330;2022-12-29T06:09:58;0.00;78.60
29547;DHT22;40782;47.264;11.330;2022-12-29T06:12:25;0.00;17.40
29547;DHT22;40782;47.264;11.330;2022-12-29T06:14:52;-0.10;10.00
29547;DHT22;40782;47.264;11.330;2022-12-29T06:17:19;-0.10;22.60
29547;DHT22;40782;47.264;11.330;2022-12-29T06:19:46;-0.10;12.90
29547;DHT22;40782;47.264;11.330;2022-12-29T06:22:13;-0.10;1.00
29547;DHT22;40782;47.264;11.330;2022-12-29T06:24:40;-0.10;1.00
29547;DHT22;40782;47.264;11.330;2022-12-29T06:27:09;-0.20;15.10
29547;DHT22;40782;47.264;11.330;2022-12-29T06:29:36;-0.20;11.80
29547;DHT22;40782;47.264;11.330;2022-12-29T06:32:05;-0.20;17.10
29547;DHT22;40782;47.264;11.330;2022-12-29T06:34:33;-0.20;25.60
29547;DHT22;40782;47.264;11.330;2022-12-29T06:37:00;-0.10;43.10
29547;DHT22;40782;47.264;11.330;2022-12-29T06:39:27;0.10;23.10
29547;DHT22;40782;47.264;11.330;2022-12-29T06:41:55;0.20;1.00
29547;DHT22;40782;47.264;11.330;2022-12-29T06:44:23;0.10;1.00
29547;DHT22;40782;47.264;11.330;2022-12-29T06:46:50;0.10;1.00
29547;DHT22;40782;47.264;11.330;2022-12-29T06:49:18;0.10;1.00
29547;DHT22;40782;47.264;11.330;2022-12-29T06:51:45;0.10;1.00
29547;DHT22;40782;47.264;11.330;2022-12-29T06:54:12;0.10;1.00
29547;DHT22;40782;47.264;11.330;2022-12-29T06:56:39;0.20;1.00
29547;DHT22;40782;47.264;11.330;2022-12-29T06:59:07;0.10;1.00
29547;DHT22;40782;47.264;11.330;2022-12-29T07:01:35;0.10;1.00
29547;DHT22;40782;47.264;11.330;2022-12-29T07:04:03;0.20;1.00
29547;DHT22;40782;47.264;11.330;2022-12-29T07:06:30;0.10;1.00
29547;DHT22;40782;47.264;11.330;2022-12-29T07:08:57;0.10;1.00
29547;DHT22;40782;47.264;11.330;2022-12-29T07:11:24;0.10;1.00
29547;DHT22;40782;47.264;11.330;2022-12-29T07:13:52;0.10;1.00
29547;DHT22;40782;47.264;11.330;2022-12-29T07:16:19;0.10;1.00
29547;DHT22;40782;47.264;11.330;2022-12-29T07:18:48;0.00;1.00
29547;DHT22;40782;47.264;11.330;2022-12-29T07:21:15;0.00;1.00
29547;DHT22;40782;47.264;11.330;2022-12-29T07:23:42;0.10;1.00
29547;DHT22;40782;47.264;11.330;2022-12-29T07:26:12;0.20;1.00
29547;DHT22;40782;47.264;11.330;2022-12-29T07:28:40;0.20;1.00
29547;DHT22;40782;47.264;11.330;2022-12-29T07:31:14;0.20;1.00
29547;DHT22;40782;47.264;11.330;2022-12-29T07:33:42;0.10;1.00
29547;DHT22;40782;47.264;11.330;2022-12-29T07:36:12;0.10;1.00
29547;DHT22;40782;47.264;11.330;2022-12-29T07:38:39;0.20;1.00
29547;DHT22;40782;47.264;11.330;2022-12-29T07:41:07;0.30;1.00
29547;DHT22;40782;47.264;11.330;2022-12-29T07:43:34;0.30;1.00
29547;DHT22;40782;47.264;11.330;2022-12-29T07:46:01;0.30;1.00
29547;DHT22;40782;47.264;11.330;2022-12-29T07:48:29;0.40;1.00
29547;DHT22;40782;47.264;11.330;2022-12-29T07:50:56;0.40;1.00
29547;DHT22;40782;47.264;11.330;2022-12-29T07:53:24;0.50;1.00
29547;DHT22;40782;47.264;11.330;2022-12-29T07:55:51;0.50;1.00
29547;DHT22;40782;47.264;11.330;2022-12-29T07:58:18;0.50;1.00
29547;DHT22;40782;47.264;11.330;2022-12-29T08:00:46;0.60;1.00
29547;DHT22;40782;47.264;11.330;2022-12-29T08:03:13;0.70;1.00
29547;DHT22;40782;47.264;11.330;2022-12-29T08:05:40;0.90;1.00
29547;DHT22;40782;47.264;11.330;2022-12-29T08:08:07;1.00;1.00
29547;DHT22;40782;47.264;11.330;2022-12-29T08:10:35;1.10;1.00
29547;DHT22;40782;47.264;11.330;2022-12-29T08:13:03;1.10;1.00
29547;DHT22;40782;47.264;11.330;2022-12-29T08:15:30;1.20;1.00
29547;DHT22;40782;47.264;11.330;2022-12-29T08:17:57;1.30;1.00
29547;DHT22;40782;47.264;11.330;2022-12-29T08:20:24;1.50;1.00
29547;DHT22;40782;47.264;11.330;2022-12-29T08:22:52;1.60;1.00
29547;DHT22;40782;47.264;11.330;2022-12-29T08:25:19;1.60;1.00
29547;DHT22;40782;47.264;11.330;2022-12-29T08:27:47;1.60;1.00
29547;DHT22;40782;47.264;11.330;2022-12-29T08:30:15;1.60;1.00
29547;DHT22;40782;47.264;11.330;2022-12-29T08:32:42;1.60;1.00
29547;DHT22;40782;47.264;11.330;2022-12-29T08:35:09;1.70;1.00
29547;DHT22;40782;47.264;11.330;2022-12-29T08:37:36;1.80;1.00
29547;DHT22;40782;47.264;11.330;2022-12-29T08:40:04;1.80;1.00
29547;DHT22;40782;47.264;11.330;2022-12-29T08:42:32;1.90;1.00
29547;DHT22;40782;47.264;11.330;2022-12-29T08:45:01;2.00;1.00
29547;DHT22;40782;47.264;11.330;2022-12-29T08:47:28;2.10;1.00
29547;DHT22;40782;47.264;11.330;2022-12-29T08:49:55;2.30;1.00
29547;DHT22;40782;47.264;11.330;2022-12-29T08:52:23;2.50;1.00
29547;DHT22;40782;47.264;11.330;2022-12-29T08:54:50;2.60;1.00
29547;DHT22;40782;47.264;11.330;2022-12-29T08:57:17;2.80;1.00
29547;DHT22;40782;47.264;11.330;2022-12-29T08:59:44;2.90;1.00
29547;DHT22;40782;47.264;11.330;2022-12-29T09:02:13;3.10;1.00
29547;DHT22;40782;47.264;11.330;2022-12-29T09:04:40;3.20;1.00
29547;DHT22;40782;47.264;11.330;2022-12-29T09:07:07;3.30;1.00
29547;DHT22;40782;47.264;11.330;2022-12-29T09:09:34;3.50;1.00
29547;DHT22;40782;47.264;11.330;2022-12-29T09:12:01;3.70;1.00
29547;DHT22;40782;47.264;11.330;2022-12-29T09:14:28;3.90;1.00
29547;DHT22;40782;47.264;11.330;2022-12-29T09:16:55;4.00;1.00
29547;DHT22;40782;47.264;11.330;2022-12-29T09:19:41;4.20;1.00
29547;DHT22;40782;47.264;11.330;2022-12-29T09:22:08;4.30;1.00
29547;DHT22;40782;47.264;11.330;2022-12-29T09:24:35;4.30;1.00
29547;DHT22;40782;47.264;11.330;2022-12-29T09:27:03;4.40;1.00
29547;DHT22;40782;47.264;11.330;2022-12-29T09:29:30;4.50;1.00
29547;DHT22;40782;47.264;11.330;2022-12-29T09:31:57;4.50;1.00
29547;DHT22;40782;47.264;11.330;2022-12-29T09:34:24;4.50;1.00
29547;DHT22;40782;47.264;11.330;2022-12-29T09:36:53;4.30;1.00
29547;DHT22;40782;47.264;11.330;2022-12-29T09:39:21;4.20;1.00
29547;DHT22;40782;47.264;11.330;2022-12-29T09:41:56;4.20;1.00
29547;DHT22;40782;47.264;11.330;2022-12-29T09:44:30;4.30;1.00
29547;DHT22;40782;47.264;11.330;2022-12-29T09:47:02;4.40;1.00
29547;DHT22;40782;47.264;11.330;2022-12-29T09:49:35;4.50;1.00
29547;DHT22;40782;47.264;11.330;2022-12-29T09:52:13;4.70;1.00
29547;DHT22;40782;47.264;11.330;2022-12-29T09:54:47;4.80;1.00
29547;DHT22;40782;47.264;11.330;2022-12-29T09:57:19;4.90;1.00
29547;DHT22;40782;47.264;11.330;2022-12-29T09:59:50;4.90;1.00
29547;DHT22;40782;47.264;11.330;2022-12-29T10:02:32;5.00;1.00
29547;DHT22;40782;47.264;11.330;2022-12-29T10:05:00;5.00;1.00
29547;DHT22;40782;47.264;11.330;2022-12-29T10:07:38;5.20;1.00
29547;DHT22;40782;47.264;11.330;2022-12-29T10:10:26;5.40;1.00
29547;DHT22;40782;47.264;11.330;2022-12-29T10:13:04;5.40;1.00
29547;DHT22;40782;47.264;11.330;2022-12-29T10:15:44;5.40;1.00
29547;DHT22;40782;47.264;11.330;2022-12-29T10:18:23;5.30;1.00
29547;DHT22;40782;47.264;11.330;2022-12-29T10:20:55;5.50;1.00
29547;DHT22;40782;47.264;11.330;2022-12-29T10:23:28;5.70;1.00
29547;DHT22;40782;47.264;11.330;2022-12-29T10:25:58;5.70;1.00
29547;DHT22;40782;47.264;11.330;2022-12-29T10:28:34;5.70;1.00
29547;DHT22;40782;47.264;11.330;2022-12-29T10:31:05;5.70;1.00
29547;DHT22;40782;47.264;11.330;2022-12-29T10:33:36;5.80;1.00
29547;DHT22;40782;47.264;11.330;2022-12-29T10:36:12;5.90;1.00
29547;DHT22;40782;47.264;11.330;2022-12-29T10:38:48;6.00;1.00
29547;DHT22;40782;47.264;11.330;2022-12-29T10:41:20;6.00;1.00
29547;DHT22;40782;47.264;11.330;2022-12-29T10:43:49;6.10;1.00
29547;DHT22;40782;47.264;11.330;2022-12-29T10:46:20;6.00;1.00
29547;DHT22;40782;47.264;11.330;2022-12-29T10:48:48;6.00;1.00
29547;DHT22;40782;47.264;11.330;2022-12-29T10:51:21;6.00;1.00
29547;DHT22;40782;47.264;11.330;2022-12-29T10:53:53;6.00;1.00
29547;DHT22;40782;47.264;11.330;2022-12-29T10:56:28;6.10;1.00
29547;DHT22;40782;47.264;11.330;2022-12-29T10:58:59;6.20;1.00
29547;DHT22;40782;47.264;11.330;2022-12-29T11:01:32;6.30;99.90
29547;DHT22;40782;47.264;11.330;2022-12-29T11:04:04;6.30;99.90
29547;DHT22;40782;47.264;11.330;2022-12-29T11:06:32;6.30;99.90
29547;DHT22;40782;47.264;11.330;2022-12-29T11:09:12;6.50;99.90
29547;DHT22;40782;47.264;11.330;2022-12-29T11:11:40;6.60;99.90
29547;DHT22;40782;47.264;11.330;2022-12-29T11:14:12;6.70;99.90
29547;DHT22;40782;47.264;11.330;2022-12-29T11:16:39;7.00;99.90
29547;DHT22;40782;47.264;11.330;2022-12-29T11:19:20;7.50;99.90
29547;DHT22;40782;47.264;11.330;2022-12-29T11:21:48;7.80;99.90
29547;DHT22;40782;47.264;11.330;2022-12-29T11:24:22;7.90;99.90
29547;DHT22;40782;47.264;11.330;2022-12-29T11:26:51;8.10;99.90
29547;DHT22;40782;47.264;11.330;2022-12-29T11:29:25;8.00;99.90
29547;DHT22;40782;47.264;11.330;2022-12-29T11:31:54;8.00;99.90
29547;DHT22;40782;47.264;11.330;2022-12-29T11:34:25;8.10;99.90
29547;DHT22;40782;47.264;11.330;2022-12-29T11:36:58;8.20;99.90
29547;DHT22;40782;47.264;11.330;2022-12-29T11:39:32;8.30;99.90
29547;DHT22;40782;47.264;11.330;2022-12-29T11:42:01;8.40;99.90
29547;DHT22;40782;47.264;11.330;2022-12-29T11:44:35;8.30;99.90
29547;DHT22;40782;47.264;11.330;2022-12-29T11:47:04;8.10;99.90
29547;DHT22;40782;47.264;11.330;2022-12-29T11:49:32;8.00;99.90
29547;DHT22;40782;47.264;11.330;2022-12-29T11:52:00;8.00;99.90
29547;DHT22;40782;47.264;11.330;2022-12-29T11:54:31;8.00;99.90
29547;DHT22;40782;47.264;11.330;2022-12-29T11:57:10;8.00;99.90
29547;DHT22;40782;47.264;11.330;2022-12-29T11:59:41;8.00;99.90
29547;DHT22;40782;47.264;11.330;2022-12-29T12:02:36;7.90;99.90
29547;DHT22;40782;47.264;11.330;2022-12-29T12:05:15;8.00;99.90
29547;DHT22;40782;47.264;11.330;2022-12-29T12:07:47;8.00;99.90
29547;DHT22;40782;47.264;11.330;2022-12-29T12:10:26;8.00;99.90
29547;DHT22;40782;47.264;11.330;2022-12-29T12:13:10;8.10;99.90
29547;DHT22;40782;47.264;11.330;2022-12-29T12:15:47;8.20;99.90
29547;DHT22;40782;47.264;11.330;2022-12-29T12:18:28;8.30;99.90
29547;DHT22;40782;47.264;11.330;2022-12-29T12:21:00;8.40;99.90
29547;DHT22;40782;47.264;11.330;2022-12-29T12:23:41;8.60;99.90
29547;DHT22;40782;47.264;11.330;2022-12-29T12:26:13;8.80;99.90
29547;DHT22;40782;47.264;11.330;2022-12-29T12:28:48;9.10;99.90
29547;DHT22;40782;47.264;11.330;2022-12-29T12:31:26;9.30;99.90
29547;DHT22;40782;47.264;11.330;2022-12-29T12:34:00;9.80;99.90
29547;DHT22;40782;47.264;11.330;2022-12-29T12:39:31;10.70;99.90
29547;DHT22;40782;47.264;11.330;2022-12-29T12:42:17;11.10;99.90
29547;DHT22;40782;47.264;11.330;2022-12-29T12:44:54;11.50;99.90
29547;DHT22;40782;47.264;11.330;2022-12-29T12:47:40;11.50;99.90
29547;DHT22;40782;47.264;11.330;2022-12-29T12:50:39;11.50;99.90
29547;DHT22;40782;47.264;11.330;2022-12-29T12:53:29;11.70;99.90
29547;DHT22;40782;47.264;11.330;2022-12-29T12:56:21;11.80;99.90
29547;DHT22;40782;47.264;11.330;2022-12-29T12:58:59;11.80;99.90
29547;DHT22;40782;47.264;11.330;2022-12-29T13:01:38;11.60;99.90
29547;DHT22;40782;47.264;11.330;2022-12-29T13:04:26;11.30;99.90
29547;DHT22;40782;47.264;11.330;2022-12-29T13:07:00;11.00;99.90
29547;DHT22;40782;47.264;11.330;2022-12-29T13:09:38;10.80;99.90
29547;DHT22;40782;47.264;11.330;2022-12-29T13:12:16;10.70;99.90
29547;DHT22;40782;47.264;11.330;2022-12-29T13:14:56;10.70;99.90
29547;DHT22;40782;47.264;11.330;2022-12-29T13:17:30;10.70;99.90
29547;DHT22;40782;47.264;11.330;2022-12-29T13:20:04;10.70;99.90
29547;DHT22;40782;47.264;11.330;2022-12-29T13:22:41;10.70;99.90
29547;DHT22;40782;47.264;11.330;2022-12-29T13:25:24;10.70;99.90
29547;DHT22;40782;47.264;11.330;2022-12-29T13:27:56;11.10;99.90
29547;DHT22;40782;47.264;11.330;2022-12-29T13:30:32;11.50;99.90
29547;DHT22;40782;47.264;11.330;2022-12-29T13:33:06;12.00;99.90
29547;DHT22;40782;47.264;11.330;2022-12-29T13:35:51;12.40;99.90
29547;DHT22;40782;47.264;11.330;2022-12-29T13:38:23;12.70;99.90
29547;DHT22;40782;47.264;11.330;2022-12-29T13:40:52;13.00;99.90
29547;DHT22;40782;47.264;11.330;2022-12-29T13:43:22;13.20;99.90
29547;DHT22;40782;47.264;11.330;2022-12-29T13:45:59;13.40;99.90
29547;DHT22;40782;47.264;11.330;2022-12-29T13:48:36;13.70;99.90
29547;DHT22;40782;47.264;11.330;2022-12-29T13:51:04;14.10;99.90
29547;DHT22;40782;47.264;11.330;2022-12-29T13:53:37;14.50;99.90
29547;DHT22;40782;47.264;11.330;2022-12-29T13:56:13;14.80;99.90
29547;DHT22;40782;47.264;11.330;2022-12-29T13:58:50;14.90;99.90
29547;DHT22;40782;47.264;11.330;2022-12-29T14:01:27;14.30;99.90
29547;DHT22;40782;47.264;11.330;2022-12-29T14:03:56;13.60;99.90
29547;DHT22;40782;47.264;11.330;2022-12-29T14:06:26;13.50;99.90
29547;DHT22;40782;47.264;11.330;2022-12-29T14:08:55;13.70;99.90
29547;DHT22;40782;47.264;11.330;2022-12-29T14:11:31;13.60;99.90
29547;DHT22;40782;47.264;11.330;2022-12-29T14:14:00;13.40;99.90
29547;DHT22;40782;47.264;11.330;2022-12-29T14:16:39;13.60;99.90
29547;DHT22;40782;47.264;11.330;2022-12-29T14:19:13;13.90;99.90
29547;DHT22;40782;47.264;11.330;2022-12-29T14:21:50;13.90;99.90
29547;DHT22;40782;47.264;11.330;2022-12-29T14:24:41;13.90;99.90
29547;DHT22;40782;47.264;11.330;2022-12-29T14:30:48;12.60;99.90
29547;DHT22;40782;47.264;11.330;2022-12-29T14:33:17;12.00;99.90
29547;DHT22;40782;47.264;11.330;2022-12-29T14:35:47;11.90;99.90
29547;DHT22;40782;47.264;11.330;2022-12-29T14:38:17;11.70;99.90
29547;DHT22;40782;47.264;11.330;2022-12-29T14:40:46;11.40;99.90
29547;DHT22;40782;47.264;11.330;2022-12-29T14:43:23;11.10;99.90
29547;DHT22;40782;47.264;11.330;2022-12-29T14:45:54;10.60;99.90
29547;DHT22;40782;47.264;11.330;2022-12-29T14:48:33;10.20;99.90
29547;DHT22;40782;47.264;11.330;2022-12-29T14:51:02;10.00;99.90
29547;DHT22;40782;47.264;11.330;2022-12-29T14:53:45;9.60;99.90
29547;DHT22;40782;47.264;11.330;2022-12-29T14:56:14;9.30;99.90
29547;DHT22;40782;47.264;11.330;2022-12-29T14:58:47;9.10;99.90
29547;DHT22;40782;47.264;11.330;2022-12-29T15:01:24;8.80;99.90
29547;DHT22;40782;47.264;11.330;2022-12-29T15:03:55;8.50;99.90
29547;DHT22;40782;47.264;11.330;2022-12-29T15:06:27;8.30;99.90
29547;DHT22;40782;47.264;11.330;2022-12-29T15:09:01;8.10;99.90
29547;DHT22;40782;47.264;11.330;2022-12-29T15:11:42;7.90;99.90
29547;DHT22;40782;47.264;11.330;2022-12-29T15:14:32;7.70;99.90
29547;DHT22;40782;47.264;11.330;2022-12-29T15:17:00;7.50;99.90
29547;DHT22;40782;47.264;11.330;2022-12-29T15:19:28;7.40;99.90
29547;DHT22;40782;47.264;11.330;2022-12-29T15:21:56;7.20;99.90
29547;DHT22;40782;47.264;11.330;2022-12-29T15:24:24;7.10;99.90
29547;DHT22;40782;47.264;11.330;2022-12-29T15:26:53;6.90;99.90
29547;DHT22;40782;47.264;11.330;2022-12-29T15:29:33;6.80;99.90
29547;DHT22;40782;47.264;11.330;2022-12-29T15:32:19;6.70;99.90
29547;DHT22;40782;47.264;11.330;2022-12-29T15:34:50;6.50;99.90
29547;DHT22;40782;47.264;11.330;2022-12-29T15:37:19;6.40;99.90
29547;DHT22;40782;47.264;11.330;2022-12-29T15:39:47;6.30;99.90
29547;DHT22;40782;47.264;11.330;2022-12-29T15:42:29;6.20;99.90
29547;DHT22;40782;47.264;11.330;2022-12-29T15:44:58;6.10;99.90
29547;DHT22;40782;47.264;11.330;2022-12-29T15:47:28;5.90;99.90
29547;DHT22;40782;47.264;11.330;2022-12-29T15:50:02;5.90;99.90
29547;DHT22;40782;47.264;11.330;2022-12-29T15:52:32;5.80;99.90
29547;DHT22;40782;47.264;11.330;2022-12-29T15:55:00;5.70;99.90
29547;DHT22;40782;47.264;11.330;2022-12-29T15:57:30;5.50;99.90
29547;DHT22;40782;47.264;11.330;2022-12-29T15:59:58;5.40;99.90
29547;DHT22;40782;47.264;11.330;2022-12-29T16:02:27;5.30;99.90
29547;DHT22;40782;47.264;11.330;2022-12-29T16:04:55;5.20;99.90
29547;DHT22;40782;47.264;11.330;2022-12-29T16:07:28;5.10;99.90
29547;DHT22;40782;47.264;11.330;2022-12-29T16:09:56;5.10;99.90